Arak, Arak Airport (OIHR)

NameArak Airport
CityArak
CountryIran (Islamic Republic of)
ICAOOIHR
IATAAJK
Altitude1658 m
CoordinatesGoogle Map
Live Air TrafficLiveATC.net
METAROIHR 130500Z 00000KT CAVOK M01/M04 Q1023
2018-12-13 05:00:00 Wind: North (0°) 0 m/s - Visibility: > 10000 m - Weather: CAVOK - Temperature: -1 °C - Dew point: -4 °C - Humidity: 80.3% - Pressure: 1023 hPa

Sorry, no flights used the airport in this database.